Time;durP1;ratioP1;P1;durP2;ratioP2;P2;SDS_P1;SDS_P2;PMS_P1;PMS_P2;Temp;Humidity;BMP_temperature;BMP_pressure;BME280_temperature;BME280_humidity;BME280_pressure;Samples;Min_cycle;Max_cycle;Signal;HPM_P1;HPM_P2
2023/04/01 00:00:25;;;;;;;7.07;4.63;;;10.00;99.90;;;;;;4934704;28;95979;-31
2023/04/01 00:02:50;;;;;;;4.93;4.30;;;10.00;99.90;;;;;;4937152;28;95586;-31
2023/04/01 00:05:16;;;;;;;4.90;4.38;;;10.00;99.90;;;;;;4937973;28;92770;-32
2023/04/01 00:07:42;;;;;;;4.82;4.18;;;10.00;99.90;;;;;;4937156;28;94270;-34
2023/04/01 00:10:10;;;;;;;4.85;4.10;;;10.00;99.90;;;;;;4936807;28;94605;-31
2023/04/01 00:12:38;;;;;;;5.53;4.60;;;9.90;99.90;;;;;;4937062;28;94437;-31
2023/04/01 00:15:05;;;;;;;4.72;3.65;;;10.00;99.90;;;;;;4937065;28;93573;-32
2023/04/01 00:17:31;;;;;;;6.90;3.63;;;10.00;99.90;;;;;;4938204;28;94167;-32
2023/04/01 00:19:57;;;;;;;6.07;4.35;;;10.00;99.90;;;;;;4937094;28;94641;-31
2023/04/01 00:22:24;;;;;;;4.75;4.20;;;10.00;99.90;;;;;;4936632;28;95005;-33
2023/04/01 00:24:50;;;;;;;4.47;3.47;;;10.00;99.90;;;;;;4936718;28;94235;-33
2023/04/01 00:27:16;;;;;;;6.45;4.60;;;10.00;99.90;;;;;;4937291;28;92239;-34
2023/04/01 00:29:46;;;;;;;7.15;3.72;;;9.90;99.90;;;;;;4936732;28;94666;-37
2023/04/01 00:32:12;;;;;;;4.05;3.65;;;9.90;99.90;;;;;;4936728;28;94353;-36
2023/04/01 00:34:39;;;;;;;6.88;4.03;;;9.90;99.90;;;;;;4937594;28;93586;-36
2023/04/01 00:37:06;;;;;;;4.22;3.85;;;9.90;99.90;;;;;;4937018;28;92135;-32
2023/04/01 00:39:33;;;;;;;5.38;3.95;;;9.90;99.90;;;;;;4937032;28;94990;-35
2023/04/01 00:42:00;;;;;;;7.70;4.15;;;9.90;99.90;;;;;;4937424;28;94896;-33
2023/04/01 00:44:31;;;;;;;4.18;3.63;;;9.90;99.90;;;;;;4937976;28;93497;-32
2023/04/01 00:46:57;;;;;;;4.47;4.05;;;9.90;99.90;;;;;;4936999;28;94001;-33
2023/04/01 00:49:26;;;;;;;5.38;4.18;;;9.90;99.90;;;;;;4935935;28;95686;-35
2023/04/01 00:51:55;;;;;;;5.65;3.60;;;9.90;99.90;;;;;;4936305;28;95429;-31
2023/04/01 00:54:24;;;;;;;4.25;3.70;;;9.90;99.90;;;;;;4937044;28;93619;-33
2023/04/01 00:57:02;;;;;;;6.95;4.35;;;9.90;99.90;;;;;;4936548;28;93027;-34
2023/04/01 00:59:30;;;;;;;;;;;9.90;99.90;;;;;;4937234;28;94895;-33
2023/04/01 01:01:56;;;;;;;4.47;4.07;;;9.90;99.90;;;;;;4940483;28;93955;-31
2023/04/01 01:04:27;;;;;;;5.80;4.88;;;9.90;99.90;;;;;;4940348;28;93155;-33
2023/04/01 01:06:59;;;;;;;4.90;4.10;;;9.90;99.90;;;;;;4940751;28;92588;-32
2023/04/01 01:09:38;;;;;;;6.55;3.45;;;9.90;99.90;;;;;;4940421;28;94810;-30
2023/04/01 01:12:10;;;;;;;8.07;3.70;;;9.90;99.90;;;;;;4939621;28;94362;-32
2023/04/01 01:15:00;;;;;;;4.03;3.63;;;9.90;99.90;;;;;;4939363;28;94906;-31
2023/04/01 01:17:45;;;;;;;6.97;5.57;;;9.90;99.90;;;;;;4939806;28;92094;-33
2023/04/01 01:20:48;;;;;;;4.72;3.90;;;9.90;99.90;;;;;;4939902;28;95130;-34
2023/04/01 01:23:41;;;;;;;5.50;4.13;;;9.90;99.90;;;;;;4939611;28;94196;-33
2023/04/01 01:26:36;;;;;;;5.70;4.55;;;9.90;99.90;;;;;;4939972;28;92779;-32
2023/04/01 01:29:20;;;;;;;8.38;4.00;;;9.90;99.90;;;;;;4940184;28;94094;-36
2023/04/01 01:32:04;;;;;;;4.72;3.47;;;9.90;99.90;;;;;;4921382;28;93632;-33
2023/04/01 01:34:43;;;;;;;6.93;3.88;;;9.80;99.90;;;;;;4940259;28;94904;-36
2023/04/01 01:37:14;;;;;;;8.85;3.85;;;9.80;99.90;;;;;;4940296;28;93653;-32
2023/04/01 01:39:42;;;;;;;3.25;2.95;;;9.80;99.90;;;;;;4938897;28;93349;-33
2023/04/01 01:42:13;;;;;;;3.33;2.78;;;9.90;99.90;;;;;;4939311;28;96194;-31
2023/04/01 01:44:41;;;;;;;2.00;1.90;;;9.80;99.90;;;;;;4939530;28;95673;-33
2023/04/01 01:47:07;;;;;;;4.53;2.72;;;9.80;99.90;;;;;;4940315;28;94837;-32
2023/04/01 01:49:33;;;;;;;2.80;2.53;;;9.80;99.90;;;;;;4939323;28;92662;-33
2023/04/01 01:51:59;;;;;;;2.97;2.42;;;9.80;99.90;;;;;;4938289;28;93820;-33
2023/04/01 01:54:25;;;;;;;3.40;2.30;;;9.70;99.90;;;;;;4939812;28;94460;-35
2023/04/01 01:57:00;;;;;;;2.08;1.90;;;9.80;99.90;;;;;;4939270;28;93970;-34
2023/04/01 01:59:27;;;;;;;2.22;2.05;;;9.70;99.90;;;;;;4939533;28;94096;-34
2023/04/01 02:01:56;;;;;;;2.97;2.75;;;9.70;99.90;;;;;;4938965;28;94379;-31
2023/04/01 02:04:23;;;;;;;3.10;2.80;;;9.70;99.90;;;;;;4939482;28;94356;-32
2023/04/01 02:07:10;;;;;;;4.13;2.65;;;9.70;99.90;;;;;;4939089;28;94987;-31
2023/04/01 02:09:37;;;;;;;3.23;2.73;;;9.80;99.90;;;;;;4939265;28;92460;-33
2023/04/01 02:12:09;;;;;;;3.40;3.10;;;9.80;99.90;;;;;;4938208;28;94407;-32
2023/04/01 02:15:05;;;;;;;4.55;3.08;;;9.80;99.90;;;;;;4938660;28;93780;-36
2023/04/01 02:17:33;;;;;;;4.70;4.22;;;9.70;99.90;;;;;;4939934;28;93207;-33
2023/04/01 02:20:21;;;;;;;5.25;3.40;;;9.80;99.90;;;;;;4939568;28;93335;-33
2023/04/01 02:22:51;;;;;;;3.45;2.95;;;9.80;99.90;;;;;;4938863;28;95212;-34
2023/04/01 02:25:21;;;;;;;5.13;4.63;;;9.80;99.90;;;;;;4938778;28;94029;-34
2023/04/01 02:27:47;;;;;;;7.43;3.78;;;9.80;99.90;;;;;;4938902;28;93715;-32
2023/04/01 02:30:14;;;;;;;5.65;4.57;;;9.80;99.90;;;;;;4938452;28;93570;-34
2023/04/01 02:32:41;;;;;;;6.03;3.58;;;9.80;99.90;;;;;;4937997;28;95732;-32
2023/04/01 02:35:11;;;;;;;4.10;3.70;;;9.80;99.90;;;;;;4938788;28;96699;-35
2023/04/01 02:37:37;;;;;;;7.32;3.92;;;9.80;99.90;;;;;;4939224;28;94067;-34
2023/04/01 02:40:07;;;;;;;5.68;3.67;;;9.70;99.90;;;;;;4938066;28;94238;-33
2023/04/01 02:42:33;;;;;;;6.72;4.30;;;9.70;99.90;;;;;;4938703;28;93540;-33
2023/04/01 02:44:59;;;;;;;5.15;3.80;;;9.80;99.90;;;;;;4938295;28;94491;-33
2023/04/01 02:47:25;;;;;;;5.82;4.10;;;9.70;99.90;;;;;;4939149;28;93229;-31
2023/04/01 02:49:50;;;;;;;5.00;3.78;;;9.70;99.90;;;;;;4938666;28;94073;-32
2023/04/01 02:52:16;;;;;;;5.63;4.28;;;9.70;99.90;;;;;;4938352;28;94093;-30
2023/04/01 02:54:41;;;;;;;6.30;4.97;;;9.80;99.90;;;;;;4938424;28;93631;-33
2023/04/01 02:57:07;;;;;;;5.05;3.53;;;9.70;99.90;;;;;;4938015;28;94097;-32
2023/04/01 02:59:33;;;;;;;5.22;2.95;;;9.70;99.90;;;;;;4938018;28;94572;-31
2023/04/01 03:01:58;;;;;;;6.15;3.80;;;9.70;99.90;;;;;;4937647;28;95350;-32
2023/04/01 03:04:24;;;;;;;5.03;4.10;;;9.70;99.90;;;;;;4938805;28;94519;-32
2023/04/01 03:06:51;;;;;;;9.48;3.22;;;9.70;99.90;;;;;;4938250;28;94510;-31
2023/04/01 03:09:16;;;;;;;5.38;2.97;;;9.70;99.90;;;;;;4938296;28;94388;-32
2023/04/01 03:11:42;;;;;;;5.68;4.05;;;9.70;99.90;;;;;;4938009;28;94950;-31
2023/04/01 03:14:07;;;;;;;4.53;3.88;;;9.70;99.90;;;;;;4937921;28;94832;-32
2023/04/01 03:16:33;;;;;;;4.75;3.38;;;9.70;99.90;;;;;;4938642;28;92651;-35
2023/04/01 03:19:01;;;;;;;7.35;3.67;;;9.70;99.90;;;;;;4919650;28;92503;-35
2023/04/01 03:21:27;;;;;;;7.18;3.88;;;9.70;99.90;;;;;;4936785;28;94388;-32
2023/04/01 03:23:53;;;;;;;7.15;4.20;;;9.70;99.90;;;;;;4936772;28;95566;-31
2023/04/01 03:26:19;;;;;;;4.20;3.47;;;9.70;99.90;;;;;;4937702;28;94487;-35
2023/04/01 03:28:45;;;;;;;4.50;3.72;;;9.70;99.90;;;;;;4937672;28;92924;-32
2023/04/01 03:31:11;;;;;;;4.65;3.47;;;9.70;99.90;;;;;;4937662;28;94462;-33
2023/04/01 03:33:37;;;;;;;4.80;3.72;;;9.70;99.90;;;;;;4937404;28;94865;-32
2023/04/01 03:36:06;;;;;;;5.20;3.60;;;9.80;99.90;;;;;;4937840;28;94124;-36
2023/04/01 03:38:35;;;;;;;4.85;3.55;;;9.70;99.90;;;;;;4938673;28;91915;-34
2023/04/01 03:41:01;;;;;;;6.93;3.60;;;9.70;99.90;;;;;;4937449;28;94273;-29
2023/04/01 03:43:26;;;;;;;5.60;4.18;;;9.80;99.90;;;;;;4936996;28;94534;-32
2023/04/01 03:45:54;;;;;;;4.90;3.47;;;9.80;99.90;;;;;;4937489;28;94399;-33
2023/04/01 03:48:20;;;;;;;6.37;4.17;;;9.80;99.90;;;;;;4938231;28;94498;-33
2023/04/01 03:50:46;;;;;;;5.15;3.95;;;9.80;99.90;;;;;;4936819;28;93781;-30
2023/04/01 03:53:12;;;;;;;4.03;3.63;;;9.80;99.90;;;;;;4937844;28;94349;-36
2023/04/01 03:55:39;;;;;;;3.97;2.90;;;9.80;99.90;;;;;;4937054;28;93196;-31
2023/04/01 03:58:08;;;;;;;4.05;3.42;;;9.80;99.90;;;;;;4937446;28;92462;-32
2023/04/01 04:00:34;;;;;;;5.90;3.65;;;9.80;99.90;;;;;;4936944;28;94717;-32
2023/04/01 04:03:00;;;;;;;7.13;4.65;;;9.80;99.90;;;;;;4919955;28;94051;-34
2023/04/01 04:05:26;;;;;;;7.93;5.28;;;9.80;99.90;;;;;;4937291;28;94858;-31
2023/04/01 04:07:52;;;;;;;6.10;4.57;;;9.70;99.90;;;;;;4937340;28;94665;-29
2023/04/01 04:10:19;;;;;;;4.93;4.45;;;9.70;99.90;;;;;;4936937;28;95592;-31
2023/04/01 04:12:45;;;;;;;7.85;4.13;;;9.70;99.90;;;;;;4936674;28;94941;-33
2023/04/01 04:15:11;;;;;;;5.43;4.93;;;9.80;99.90;;;;;;4937636;28;94467;-36
2023/04/01 04:17:37;;;;;;;7.60;5.45;;;9.80;99.90;;;;;;4937172;28;92308;-31
2023/04/01 04:20:03;;;;;;;10.77;6.03;;;9.80;99.90;;;;;;4936108;28;94610;-34
2023/04/01 04:22:28;;;;;;;14.52;6.82;;;9.80;99.90;;;;;;4936636;28;95491;-32
2023/04/01 04:24:54;;;;;;;9.15;6.22;;;9.70;99.90;;;;;;4936857;28;92300;-33
2023/04/01 04:27:20;;;;;;;11.00;7.13;;;9.70;99.90;;;;;;4937329;28;91498;-35
2023/04/01 04:29:45;;;;;;;11.23;7.63;;;9.70;99.90;;;;;;4937045;28;94903;-33
2023/04/01 04:32:11;;;;;;;12.02;9.95;;;9.70;99.90;;;;;;4936453;28;94520;-36
2023/04/01 04:34:37;;;;;;;11.13;6.97;;;9.80;99.90;;;;;;4937765;28;93102;-32
2023/04/01 04:37:03;;;;;;;8.35;6.47;;;9.70;99.90;;;;;;4939643;28;92973;-32
2023/04/01 04:39:29;;;;;;;13.68;8.73;;;9.70;99.90;;;;;;4940235;28;95374;-35
2023/04/01 04:41:54;;;;;;;11.23;9.20;;;9.70;99.90;;;;;;4939473;28;94185;-33
2023/04/01 04:44:20;;;;;;;12.85;7.90;;;9.70;99.90;;;;;;4940931;28;92981;-31
2023/04/01 04:46:46;;;;;;;10.73;8.30;;;9.70;99.90;;;;;;4940938;28;94372;-32
2023/04/01 04:49:11;;;;;;;12.60;9.07;;;9.70;99.90;;;;;;4940734;28;94533;-31
2023/04/01 04:51:37;;;;;;;12.73;8.65;;;9.70;99.90;;;;;;4940704;28;94486;-31
2023/04/01 04:54:05;;;;;;;13.35;9.07;;;9.70;99.90;;;;;;4940341;28;95111;-33
2023/04/01 04:56:32;;;;;;;12.10;6.37;;;9.70;99.90;;;;;;4939818;28;92280;-34
2023/04/01 04:58:58;;;;;;;10.55;7.32;;;9.70;99.90;;;;;;4939411;28;95325;-31
2023/04/01 05:01:24;;;;;;;13.30;9.55;;;9.70;99.90;;;;;;4940618;28;95570;-32
2023/04/01 05:03:50;;;;;;;12.88;8.88;;;9.80;99.90;;;;;;4940198;28;94598;-33
2023/04/01 05:06:16;;;;;;;14.02;9.70;;;9.80;99.90;;;;;;4940359;28;92773;-34
2023/04/01 05:08:43;;;;;;;10.73;9.27;;;9.70;99.90;;;;;;4939353;28;94279;-32
2023/04/01 05:11:16;;;;;;;12.63;8.52;;;9.70;99.90;;;;;;4939205;28;94226;-33
2023/04/01 05:13:42;;;;;;;12.23;9.00;;;9.80;99.90;;;;;;4939888;28;93111;-34
2023/04/01 05:16:09;;;;;;;13.05;8.95;;;9.80;99.90;;;;;;4940441;28;92384;-32
2023/04/01 05:18:35;;;;;;;14.30;9.15;;;9.70;99.90;;;;;;4939589;28;94262;-35
2023/04/01 05:21:01;;;;;;;11.40;8.20;;;9.80;99.90;;;;;;4939129;28;94590;-31
2023/04/01 05:23:26;;;;;;;11.15;9.15;;;9.80;99.90;;;;;;4939474;28;95265;-36
2023/04/01 05:25:52;;;;;;;9.75;6.65;;;9.80;99.90;;;;;;4939388;28;93447;-34
2023/04/01 05:28:19;;;;;;;10.02;7.97;;;9.90;99.90;;;;;;4939412;28;94034;-31
2023/04/01 05:30:45;;;;;;;11.75;8.68;;;9.90;99.90;;;;;;4938876;28;94594;-31
2023/04/01 05:33:12;;;;;;;9.63;7.40;;;9.80;99.90;;;;;;4939603;28;92649;-34
2023/04/01 05:35:38;;;;;;;10.18;7.25;;;9.80;99.90;;;;;;4939469;28;92180;-33
2023/04/01 05:38:04;;;;;;;8.48;6.13;;;9.80;99.90;;;;;;4939473;28;94341;-32
2023/04/01 05:40:31;;;;;;;11.27;6.68;;;9.80;99.90;;;;;;4939967;28;94568;-32
2023/04/01 05:42:57;;;;;;;10.35;7.03;;;9.80;99.90;;;;;;4939084;28;93620;-35
2023/04/01 05:45:22;;;;;;;9.38;6.72;;;9.80;99.90;;;;;;4939996;28;93455;-35
2023/04/01 05:47:48;;;;;;;9.07;6.68;;;9.80;99.90;;;;;;4937312;28;95766;-35
2023/04/01 05:50:14;;;;;;;6.13;4.85;;;9.90;99.90;;;;;;4939752;28;95513;-33
2023/04/01 05:52:40;;;;;;;10.15;7.53;;;9.80;99.90;;;;;;4939136;28;94522;-34
2023/04/01 05:55:06;;;;;;;10.73;7.05;;;9.80;99.90;;;;;;4938801;28;93283;-33
2023/04/01 05:57:32;;;;;;;6.88;5.05;;;9.80;99.90;;;;;;4939368;28;95433;-35
2023/04/01 05:59:58;;;;;;;6.47;4.88;;;9.90;99.90;;;;;;4938031;28;94194;-33
2023/04/01 06:02:24;;;;;;;7.20;5.18;;;9.80;99.90;;;;;;4939764;28;93510;-31
2023/04/01 06:05:11;;;;;;;5.50;4.68;;;9.80;99.90;;;;;;4939803;28;91620;-30
2023/04/01 06:07:36;;;;;;;7.40;5.50;;;9.80;99.90;;;;;;4939002;28;94510;-31
2023/04/01 06:10:05;;;;;;;8.00;5.53;;;9.80;99.90;;;;;;4938654;28;94018;-36
2023/04/01 06:12:37;;;;;;;7.80;5.43;;;9.90;99.90;;;;;;4938831;28;94334;-33
2023/04/01 06:15:33;;;;;;;5.53;5.00;;;9.90;99.90;;;;;;4938351;28;93784;-32
2023/04/01 06:18:42;;;;;;;8.02;5.22;;;9.90;99.90;;;;;;4938381;28;94658;-35
2023/04/01 06:21:26;;;;;;;7.72;5.05;;;9.80;99.90;;;;;;4920572;28;94110;-30
2023/04/01 06:24:15;;;;;;;8.75;5.25;;;9.90;99.90;;;;;;4939649;28;93762;-31
2023/04/01 06:27:05;;;;;;;7.45;5.63;;;9.90;99.90;;;;;;4938616;28;93754;-29
2023/04/01 06:29:55;;;;;;;9.85;6.78;;;9.90;99.90;;;;;;4938513;28;93256;-33
2023/04/01 06:32:34;;;;;;;6.07;5.43;;;9.90;99.90;;;;;;4939154;28;93445;-34
2023/04/01 06:35:31;;;;;;;6.78;5.97;;;9.90;99.90;;;;;;4940867;28;94325;-32
2023/04/01 06:38:20;;;;;;;11.00;7.20;;;9.90;99.90;;;;;;4938814;28;93627;-32
2023/04/01 06:41:13;;;;;;;9.65;7.03;;;10.00;99.90;;;;;;4937485;28;95557;-33
2023/04/01 06:44:07;;;;;;;10.90;6.28;;;10.00;99.90;;;;;;4938477;28;95587;-32
2023/04/01 06:46:50;;;;;;;8.82;6.45;;;10.00;99.90;;;;;;4938900;28;93040;-33
2023/04/01 06:49:46;;;;;;;5.70;5.07;;;10.00;99.90;;;;;;4939011;28;93274;-32
2023/04/01 06:52:33;;;;;;;10.95;5.05;;;10.10;99.90;;;;;;4938040;28;94577;-31
2023/04/01 06:55:12;;;;;;;7.53;5.50;;;10.10;99.90;;;;;;4955191;28;93607;-30
2023/04/01 06:57:43;;;;;;;6.07;4.50;;;10.10;99.90;;;;;;4957293;28;94558;-31
2023/04/01 07:00:22;;;;;;;7.70;5.25;;;10.20;99.90;;;;;;4957884;28;93321;-30
2023/04/01 07:02:55;;;;;;;6.43;4.65;;;10.20;99.90;;;;;;4957112;28;94832;-32
2023/04/01 07:05:22;;;;;;;5.43;4.07;;;10.20;99.90;;;;;;4957908;28;94136;-30
2023/04/01 07:07:57;;;;;;;5.80;4.43;;;10.20;99.90;;;;;;4957416;28;93124;-31
2023/04/01 07:10:47;;;;;;;8.45;5.80;;;10.20;99.90;;;;;;4957784;28;94070;-31
2023/04/01 07:13:49;;;;;;;8.65;5.70;;;10.20;99.90;;;;;;4957415;28;94796;-31
2023/04/01 07:16:26;;;;;;;9.65;6.00;;;10.10;99.90;;;;;;4932644;28;95991;-32
2023/04/01 07:19:20;;;;;;;10.50;7.57;;;10.20;99.90;;;;;;4958276;28;93296;-32
2023/04/01 07:21:51;;;;;;;16.05;8.55;;;10.20;99.90;;;;;;4956366;28;93510;-30
2023/04/01 07:24:39;;;;;;;9.07;6.25;;;10.20;99.90;;;;;;4957512;28;94766;-35
2023/04/01 07:27:10;;;;;;;10.43;7.27;;;10.20;99.90;;;;;;4957219;28;96020;-32
2023/04/01 07:29:35;;;;;;;8.20;6.38;;;10.30;99.90;;;;;;4957816;28;93450;-32
2023/04/01 07:32:35;;;;;;;10.20;7.18;;;10.30;99.90;;;;;;4956946;28;93655;-32
2023/04/01 07:35:16;;;;;;;10.38;9.32;;;10.30;99.90;;;;;;4956600;28;95730;-34
2023/04/01 07:38:19;;;;;;;8.70;6.38;;;10.20;99.90;;;;;;4956709;28;96777;-33
2023/04/01 07:41:04;;;;;;;7.55;5.72;;;10.30;99.90;;;;;;4957564;28;92642;-32
2023/04/01 07:43:44;;;;;;;11.13;6.70;;;10.30;99.90;;;;;;4957275;28;92918;-32
2023/04/01 07:46:22;;;;;;;12.77;7.00;;;10.40;99.90;;;;;;4957171;28;95049;-34
2023/04/01 07:48:57;;;;;;;8.25;6.15;;;10.40;99.90;;;;;;4957071;28;94134;-33
2023/04/01 07:51:37;;;;;;;10.18;7.25;;;10.30;99.90;;;;;;4956224;28;94182;-36
2023/04/01 07:54:32;;;;;;;7.18;5.13;;;10.30;99.90;;;;;;4957085;28;93858;-34
2023/04/01 07:57:15;;;;;;;6.95;4.60;;;10.40;99.90;;;;;;4956231;28;96496;-36
2023/04/01 08:00:06;;;;;;;6.53;4.82;;;10.40;99.90;;;;;;4956004;28;93991;-33
2023/04/01 08:02:34;;;;;;;6.78;4.72;;;10.30;99.90;;;;;;4956758;28;93104;-34
2023/04/01 08:05:27;;;;;;;3.22;2.92;;;10.30;99.90;;;;;;4956934;28;93731;-34
2023/04/01 08:08:06;;;;;;;5.88;2.97;;;10.40;99.90;;;;;;4955828;28;94784;-31
2023/04/01 08:10:43;;;;;;;;;;;10.30;99.90;;;;;;4957316;28;93664;-35
2023/04/01 08:13:32;;;;;;;4.90;3.40;;;10.40;99.90;;;;;;4943661;28;94092;-32
2023/04/01 08:16:00;;;;;;;4.53;4.03;;;10.50;99.90;;;;;;4941659;28;92723;-34
2023/04/01 08:18:54;;;;;;;4.13;2.65;;;10.50;99.90;;;;;;4941933;28;95021;-32
2023/04/01 08:21:41;;;;;;;5.05;3.08;;;10.60;99.90;;;;;;4922343;28;93972;-32
2023/04/01 08:24:32;;;;;;;4.30;2.95;;;10.70;99.90;;;;;;4932889;28;93288;-32
2023/04/01 08:27:03;;;;;;;2.75;1.73;;;10.70;99.90;;;;;;4932626;28;94147;-31
2023/04/01 08:30:20;;;;;;;1.73;1.35;;;10.80;99.90;;;;;;4941679;28;95846;-35
2023/04/01 08:33:11;;;;;;;2.13;1.67;;;10.90;99.90;;;;;;4907276;28;94087;-32
2023/04/01 08:35:54;;;;;;;2.97;2.03;;;11.00;99.90;;;;;;4941751;28;93270;-33
2023/04/01 08:38:57;;;;;;;2.17;2.05;;;11.00;99.90;;;;;;4941626;28;93743;-32
2023/04/01 08:41:34;;;;;;;6.45;3.35;;;11.10;99.90;;;;;;4941414;28;94907;-36
2023/04/01 08:44:15;;;;;;;4.30;2.97;;;11.10;99.90;;;;;;4941110;28;94725;-35
2023/04/01 08:47:22;;;;;;;4.25;3.40;;;11.10;99.90;;;;;;4941249;28;94475;-35
2023/04/01 08:50:12;;;;;;;6.57;4.18;;;11.10;99.90;;;;;;4912967;28;91425;-31
2023/04/01 08:52:56;;;;;;;6.68;4.22;;;11.10;99.90;;;;;;4941072;28;95340;-32
2023/04/01 08:55:25;;;;;;;8.32;5.60;;;11.20;99.90;;;;;;4941816;28;93425;-32
2023/04/01 08:58:26;;;;;;;7.07;4.97;;;11.20;99.90;;;;;;4941354;28;95255;-35
2023/04/01 09:01:15;;;;;;;7.68;5.70;;;11.20;99.90;;;;;;4940786;28;93288;-34
2023/04/01 09:03:48;;;;;;;4.72;4.20;;;11.20;99.90;;;;;;4941152;28;94412;-33
2023/04/01 09:06:42;;;;;;;9.90;6.35;;;11.20;99.90;;;;;;4940838;28;94573;-33
2023/04/01 09:09:26;;;;;;;6.45;4.63;;;11.20;99.90;;;;;;4941511;28;93512;-32
2023/04/01 09:12:19;;;;;;;8.80;5.82;;;11.20;99.90;;;;;;4940961;28;93198;-35
2023/04/01 09:14:59;;;;;;;10.23;7.88;;;11.20;99.90;;;;;;4940285;28;94248;-32
2023/04/01 09:17:31;;;;;;;8.02;5.85;;;11.20;99.90;;;;;;4940997;28;93462;-33
2023/04/01 09:20:27;;;;;;;5.45;4.82;;;11.30;99.90;;;;;;4941275;28;93231;-31
2023/04/01 09:23:15;;;;;;;7.07;5.07;;;11.30;99.90;;;;;;4938907;28;92879;-33
2023/04/01 09:25:52;;;;;;;6.30;5.32;;;11.50;99.90;;;;;;4936944;28;95703;-32
2023/04/01 09:28:33;;;;;;;8.32;5.13;;;11.50;99.90;;;;;;4937581;28;95232;-34
2023/04/01 09:31:23;;;;;;;9.18;6.70;;;11.50;99.90;;;;;;4937592;28;94849;-32
2023/04/01 09:34:08;;;;;;;9.30;5.35;;;11.50;99.90;;;;;;4937038;28;94153;-30
2023/04/01 09:36:47;;;;;;;4.85;3.63;;;11.50;99.90;;;;;;4937178;28;94768;-32
2023/04/01 09:39:42;;;;;;;6.53;4.43;;;11.60;99.90;;;;;;4937621;28;94360;-32
2023/04/01 09:42:30;;;;;;;6.88;4.53;;;11.60;99.90;;;;;;4938173;28;93013;-32
2023/04/01 09:45:03;;;;;;;9.20;3.58;;;11.60;99.90;;;;;;4937629;28;92511;-34
2023/04/01 09:47:45;;;;;;;4.65;4.07;;;11.60;99.90;;;;;;4936912;28;97038;-33
2023/04/01 09:50:41;;;;;;;5.90;4.53;;;11.60;99.90;;;;;;4937784;28;92957;-32
2023/04/01 09:53:12;;;;;;;6.38;4.53;;;11.60;99.90;;;;;;4936780;28;95274;-35
2023/04/01 09:55:53;;;;;;;5.00;4.03;;;11.70;99.90;;;;;;4937219;28;92547;-33
2023/04/01 09:58:52;;;;;;;6.75;4.38;;;11.70;99.90;;;;;;4936321;28;95492;-32
2023/04/01 10:01:46;;;;;;;8.05;5.18;;;11.70;99.90;;;;;;4936874;28;94281;-34
2023/04/01 10:04:24;;;;;;;5.85;5.05;;;11.80;99.90;;;;;;4937676;28;94665;-33
2023/04/01 10:07:22;;;;;;;6.90;5.55;;;11.80;99.90;;;;;;4936230;28;93705;-33
2023/04/01 10:10:25;;;;;;;7.28;5.13;;;11.80;99.90;;;;;;4936661;28;95750;-34
2023/04/01 10:12:51;;;;;;;6.97;5.07;;;11.80;99.90;;;;;;4937194;28;94659;-33
2023/04/01 10:15:44;;;;;;;6.22;4.40;;;11.90;99.90;;;;;;4937367;28;92990;-32
2023/04/01 10:18:23;;;;;;;5.90;4.10;;;11.90;99.90;;;;;;4936277;28;92227;-34
2023/04/01 10:20:52;;;;;;;8.73;6.97;;;12.00;99.90;;;;;;4935579;28;96425;-32
2023/04/01 10:23:17;;;;;;;;;;;12.00;99.90;;;;;;4937005;28;95247;-35
2023/04/01 10:26:09;;;;;;;7.18;5.43;;;12.00;99.90;;;;;;4938997;28;92112;-33
2023/04/01 10:28:47;;;;;;;8.50;5.80;;;12.00;99.90;;;;;;4936933;28;93151;-36
2023/04/01 10:31:50;;;;;;;8.98;4.40;;;12.00;99.90;;;;;;4936580;28;94826;-33
2023/04/01 10:34:53;;;;;;;7.50;4.88;;;12.00;99.90;;;;;;4935781;28;94266;-31
2023/04/01 10:37:56;;;;;;;9.00;6.22;;;11.90;99.90;;;;;;4936839;28;92239;-32
2023/04/01 10:40:35;;;;;;;9.77;6.72;;;11.90;99.90;;;;;;4919537;28;93339;-32
2023/04/01 10:43:18;;;;;;;11.15;8.07;;;11.80;99.90;;;;;;4935883;28;94731;-33
2023/04/01 10:45:53;;;;;;;11.77;8.73;;;11.70;99.90;;;;;;4942865;28;94375;-31
2023/04/01 10:49:05;;;;;;;10.15;8.52;;;11.60;99.90;;;;;;4946874;28;94140;-31
2023/04/01 10:51:52;;;;;;;8.73;6.63;;;11.70;99.90;;;;;;4916451;28;93299;-30
2023/04/01 10:54:55;;;;;;;9.65;7.20;;;11.70;99.90;;;;;;4926536;28;94935;-32
2023/04/01 10:57:57;;;;;;;6.70;5.10;;;11.70;99.90;;;;;;4916978;28;94862;-33
2023/04/01 11:00:32;;;;;;;6.35;4.15;;;11.50;99.90;;;;;;4917230;28;92570;-36
2023/04/01 11:03:20;;;;;;;5.25;4.47;;;11.30;99.90;;;;;;4916945;28;93108;-34
2023/04/01 11:06:04;;;;;;;9.47;5.20;;;11.10;99.90;;;;;;4916583;28;94111;-32
2023/04/01 11:08:57;;;;;;;5.47;4.95;;;10.90;99.90;;;;;;4916447;28;94859;-34
2023/04/01 11:12:00;;;;;;;5.82;4.40;;;10.90;99.90;;;;;;4917373;28;93362;-30
2023/04/01 11:14:44;;;;;;;5.20;4.03;;;10.70;99.90;;;;;;4916771;28;94550;-33
2023/04/01 11:17:45;;;;;;;4.10;3.70;;;10.70;99.90;;;;;;4916340;28;95485;-33
2023/04/01 11:20:48;;;;;;;4.45;3.50;;;10.70;99.90;;;;;;4915997;28;95610;-34
2023/04/01 11:23:47;;;;;;;4.60;3.58;;;10.70;99.90;;;;;;4916631;28;94428;-34
2023/04/01 11:26:34;;;;;;;5.15;3.53;;;10.60;99.90;;;;;;4916984;28;93150;-34
2023/04/01 11:29:36;;;;;;;4.40;3.67;;;10.60;99.90;;;;;;4883039;28;94728;-31
2023/04/01 11:32:14;;;;;;;9.82;3.90;;;10.60;99.90;;;;;;4915170;28;94116;-31
2023/04/01 11:35:14;;;;;;;4.50;3.25;;;10.60;99.90;;;;;;4916476;28;93105;-36
2023/04/01 11:38:01;;;;;;;3.15;2.85;;;10.60;99.90;;;;;;4916682;28;91881;-35
2023/04/01 11:40:33;;;;;;;3.80;3.50;;;10.60;99.90;;;;;;4916485;28;94876;-33
2023/04/01 11:43:11;;;;;;;4.25;3.35;;;10.60;99.90;;;;;;4915193;28;94873;-33
2023/04/01 11:45:37;;;;;;;3.15;2.85;;;10.50;99.90;;;;;;4914887;28;93224;-33
2023/04/01 11:48:18;;;;;;;2.97;2.50;;;10.40;99.90;;;;;;4916110;28;92185;-35
2023/04/01 11:50:56;;;;;;;3.58;3.28;;;10.40;99.90;;;;;;4929674;28;94320;-33
2023/04/01 11:53:55;;;;;;;6.25;3.33;;;10.40;99.90;;;;;;4934522;28;94524;-36
2023/04/01 11:56:26;;;;;;;4.22;2.63;;;10.40;99.90;;;;;;4935307;28;93586;-30
2023/04/01 11:58:54;;;;;;;3.40;3.10;;;10.40;99.90;;;;;;4946414;22;92523;-33
2023/04/01 12:01:47;;;;;;;3.35;3.05;;;10.40;99.90;;;;;;4915508;28;94691;-30
2023/04/01 12:04:44;;;;;;;3.17;2.63;;;10.40;99.90;;;;;;4914908;28;94578;-32
2023/04/01 12:07:31;;;;;;;3.95;3.17;;;10.50;99.90;;;;;;4915697;28;94629;-32
2023/04/01 12:10:15;;;;;;;2.45;2.25;;;10.60;99.90;;;;;;4915213;28;93976;-30
2023/04/01 12:12:49;;;;;;;2.78;2.53;;;10.60;99.90;;;;;;4914882;28;95651;-36
2023/04/01 12:15:41;;;;;;;3.38;2.88;;;10.60;99.90;;;;;;4915628;28;95413;-33
2023/04/01 12:18:30;;;;;;;3.03;2.53;;;10.70;99.90;;;;;;4887049;28;93427;-32
2023/04/01 12:21:20;;;;;;;1.92;1.63;;;10.70;99.90;;;;;;4915223;28;93293;-30
2023/04/01 12:24:04;;;;;;;2.65;2.45;;;10.60;99.90;;;;;;4914986;28;94703;-35
2023/04/01 12:26:48;;;;;;;3.50;3.20;;;10.50;99.90;;;;;;4916319;28;94441;-32
2023/04/01 12:29:55;;;;;;;2.63;2.42;;;10.50;99.90;;;;;;4915399;28;94429;-31
2023/04/01 12:33:04;;;;;;;4.20;3.35;;;10.40;99.90;;;;;;4915376;28;91338;-32
2023/04/01 12:35:55;;;;;;;2.70;2.33;;;10.40;99.90;;;;;;4915541;28;94949;-34
2023/04/01 12:38:36;;;;;;;1.92;1.67;;;10.40;99.90;;;;;;4916067;28;93741;-31
2023/04/01 12:41:12;;;;;;;2.58;2.38;;;10.30;99.90;;;;;;4914854;28;93186;-35
2023/04/01 12:43:43;;;;;;;2.25;2.10;;;10.30;99.90;;;;;;4915482;28;94204;-33
2023/04/01 12:46:15;;;;;;;2.72;2.53;;;10.30;99.90;;;;;;4915265;28;95540;-32
2023/04/01 12:48:56;;;;;;;2.78;2.58;;;10.20;99.90;;;;;;4914842;28;94544;-33
2023/04/01 12:51:41;;;;;;;2.38;2.17;;;10.20;99.90;;;;;;4915073;28;92478;-32
2023/04/01 12:54:26;;;;;;;1.83;1.73;;;10.10;99.90;;;;;;4915181;28;94327;-31
2023/04/01 12:57:19;;;;;;;3.88;3.55;;;10.10;99.90;;;;;;4916483;28;94215;-32
2023/04/01 13:00:10;;;;;;;3.40;2.60;;;10.10;99.90;;;;;;4917872;28;94078;-31
2023/04/01 13:02:54;;;;;;;3.30;2.72;;;10.10;99.90;;;;;;4918296;28;94457;-34
2023/04/01 13:05:45;;;;;;;2.67;2.10;;;10.10;99.90;;;;;;4919205;28;93467;-33
2023/04/01 13:08:18;;;;;;;2.60;2.40;;;10.10;99.90;;;;;;4917477;28;95185;-35
2023/04/01 13:10:54;;;;;;;6.25;2.75;;;10.00;99.90;;;;;;4917682;28;95327;-33
2023/04/01 13:13:22;;;;;;;2.30;2.10;;;9.90;99.90;;;;;;4918423;28;93504;-32
2023/04/01 13:16:06;;;;;;;3.72;3.25;;;9.90;99.90;;;;;;4918115;28;93338;-31
2023/04/01 13:18:40;;;;;;;3.63;2.92;;;9.90;99.90;;;;;;4918724;28;94735;-32
2023/04/01 13:21:31;;;;;;;2.60;2.03;;;9.90;99.90;;;;;;4917277;28;94209;-33
2023/04/01 13:24:16;;;;;;;2.35;2.15;;;10.00;99.90;;;;;;4917534;28;92266;-30
2023/04/01 13:27:16;;;;;;;4.93;2.55;;;9.90;99.90;;;;;;4918270;28;93215;-36
2023/04/01 13:30:11;;;;;;;3.25;2.95;;;10.00;99.90;;;;;;4917428;28;94582;-34
2023/04/01 13:33:29;;;;;;;4.90;2.17;;;9.90;99.90;;;;;;4908754;28;95369;-31
2023/04/01 13:35:54;;;;;;;;;;;9.90;99.90;;;;;;4884483;28;93148;-35
2023/04/01 13:38:26;;;;;;;4.03;2.63;;;9.80;99.90;;;;;;4919137;28;93539;-32
2023/04/01 13:41:09;;;;;;;5.50;3.17;;;9.80;99.90;;;;;;4917311;28;94711;-35
2023/04/01 13:43:45;;;;;;;2.55;2.35;;;9.80;99.90;;;;;;4917180;28;94710;-31